Time;durP1;ratioP1;P1;durP2;ratioP2;P2;SDS_P1;SDS_P2;PMS_P1;PMS_P2;Temp;Humidity;BMP_temperature;BMP_pressure;BME280_temperature;BME280_humidity;BME280_pressure;Samples;Min_cycle;Max_cycle;Signal;HPM_P1;HPM_P2
2023/06/25 00:01:34;;;;;;;15.68;11.80;;;19.40;99.90;;;;;;4999557;28;20226;-74
2023/06/25 00:04:23;;;;;;;14.70;11.80;;;19.50;99.90;;;;;;5001462;28;20226;-72
2023/06/25 00:07:12;;;;;;;18.33;12.05;;;19.40;99.90;;;;;;4998324;28;20284;-71
2023/06/25 00:10:01;;;;;;;15.10;12.18;;;19.40;99.90;;;;;;5008487;28;20234;-72
2023/06/25 00:12:50;;;;;;;15.98;11.95;;;19.30;99.90;;;;;;4992734;28;20227;-72
2023/06/25 00:15:40;;;;;;;14.35;11.85;;;19.30;99.90;;;;;;5001209;28;20693;-73
2023/06/25 00:18:29;;;;;;;15.57;11.77;;;19.30;99.90;;;;;;5021928;28;20226;-72
2023/06/25 00:21:18;;;;;;;16.33;12.18;;;19.20;99.90;;;;;;4992934;28;20700;-71
2023/06/25 00:24:07;;;;;;;13.65;11.70;;;19.30;99.90;;;;;;4994892;28;20234;-72
2023/06/25 00:26:56;;;;;;;14.15;11.50;;;19.20;99.90;;;;;;4991658;28;20223;-72
2023/06/25 00:29:46;;;;;;;15.88;11.98;;;19.20;99.90;;;;;;4994718;28;20291;-71
2023/06/25 00:32:37;;;;;;;15.73;11.73;;;19.20;99.90;;;;;;4991230;28;20262;-73
2023/06/25 00:35:28;;;;;;;14.27;11.30;;;19.00;99.90;;;;;;5001538;28;20231;-72
2023/06/25 00:38:17;;;;;;;12.73;10.90;;;19.10;99.90;;;;;;4993781;28;20230;-71
2023/06/25 00:41:08;;;;;;;11.77;10.52;;;19.00;99.90;;;;;;4977540;28;20350;-72
2023/06/25 00:43:58;;;;;;;11.55;10.25;;;19.00;99.90;;;;;;4997596;28;20229;-73
2023/06/25 00:46:48;;;;;;;13.85;10.90;;;19.10;99.90;;;;;;4989054;28;20227;-73
2023/06/25 00:49:39;;;;;;;13.85;10.55;;;19.10;99.90;;;;;;4991523;28;20320;-74
2023/06/25 00:52:28;;;;;;;14.95;10.73;;;19.00;99.90;;;;;;5003934;28;20223;-72
2023/06/25 00:55:17;;;;;;;12.30;10.20;;;19.00;99.90;;;;;;5001641;28;20335;-73
2023/06/25 00:58:06;;;;;;;11.32;9.70;;;19.00;99.90;;;;;;4997119;28;20304;-71
2023/06/25 01:01:00;;;;;;;11.80;9.27;;;19.00;99.90;;;;;;4999203;28;20230;-71
2023/06/25 01:03:55;;;;;;;10.60;9.30;;;19.00;99.90;;;;;;4991838;28;20609;-71
2023/06/25 01:06:51;;;;;;;13.10;9.05;;;19.10;99.90;;;;;;5006418;28;20325;-72
2023/06/25 01:09:40;;;;;;;11.85;8.52;;;19.00;99.90;;;;;;5002472;28;20294;-72
2023/06/25 01:12:30;;;;;;;11.13;8.57;;;19.00;99.90;;;;;;5011659;28;20234;-71
2023/06/25 01:15:18;;;;;;;10.27;8.20;;;19.00;99.90;;;;;;4996212;28;20681;-70
2023/06/25 01:18:09;;;;;;;12.57;8.90;;;19.00;99.90;;;;;;5000995;28;20604;-74
2023/06/25 01:21:00;;;;;;;10.20;8.10;;;19.00;99.90;;;;;;5005629;28;20669;-74
2023/06/25 01:23:50;;;;;;;11.80;7.80;;;18.90;99.90;;;;;;4995473;28;20245;-73
2023/06/25 01:26:40;;;;;;;9.93;7.10;;;18.90;99.90;;;;;;4999179;28;20720;-72
2023/06/25 01:29:29;;;;;;;12.25;7.15;;;18.80;99.90;;;;;;4990196;28;20689;-73
2023/06/25 01:32:18;;;;;;;11.07;6.95;;;18.80;99.90;;;;;;4994827;28;20233;-72
2023/06/25 01:35:09;;;;;;;10.15;6.97;;;18.70;99.90;;;;;;5017057;28;20245;-72
2023/06/25 01:38:00;;;;;;;12.40;7.40;;;18.70;99.90;;;;;;4997267;28;20226;-73
2023/06/25 01:40:50;;;;;;;10.05;7.22;;;18.60;99.90;;;;;;4999948;28;20708;-74
2023/06/25 01:43:39;;;;;;;8.82;7.03;;;18.60;99.90;;;;;;4997198;28;20241;-71
2023/06/25 01:46:28;;;;;;;7.95;7.05;;;18.60;99.90;;;;;;4993015;28;20879;-72
2023/06/25 01:49:17;;;;;;;9.98;7.35;;;18.70;99.90;;;;;;4985194;28;20226;-72
2023/06/25 01:52:19;;;;;;;9.93;7.13;;;18.70;99.90;;;;;;4987538;28;20225;-73
2023/06/25 01:55:08;;;;;;;9.45;6.90;;;18.60;99.90;;;;;;4986848;28;20218;-72
2023/06/25 01:57:59;;;;;;;8.07;7.32;;;18.50;99.90;;;;;;4992041;28;20856;-73
2023/06/25 02:00:48;;;;;;;10.38;7.07;;;18.50;99.90;;;;;;4988939;28;20365;-74
2023/06/25 02:03:38;;;;;;;10.32;6.97;;;18.50;99.90;;;;;;4988525;28;20343;-75
2023/06/25 02:06:27;;;;;;;8.48;6.57;;;18.40;99.90;;;;;;4994628;28;21165;-72
2023/06/25 02:09:18;;;;;;;9.38;6.88;;;18.50;99.90;;;;;;4995945;28;20446;-73
2023/06/25 02:12:08;;;;;;;8.65;6.65;;;18.40;99.90;;;;;;5007458;28;20304;-73
2023/06/25 02:15:00;;;;;;;10.48;6.95;;;18.40;99.90;;;;;;4993329;28;20694;-73
2023/06/25 02:17:49;;;;;;;9.40;6.78;;;18.20;99.90;;;;;;4989770;28;20234;-72
2023/06/25 02:20:38;;;;;;;12.55;6.80;;;18.20;99.90;;;;;;4993863;28;20226;-74
2023/06/25 02:23:27;;;;;;;9.15;7.05;;;18.20;99.90;;;;;;4999133;28;20638;-73
2023/06/25 02:26:16;;;;;;;12.63;6.93;;;18.20;99.90;;;;;;4993743;28;20242;-75
2023/06/25 02:29:04;;;;;;;8.63;7.38;;;18.20;99.90;;;;;;4995498;28;20227;-75
2023/06/25 02:31:55;;;;;;;9.75;7.13;;;18.10;99.90;;;;;;4998275;28;20214;-72
2023/06/25 02:34:43;;;;;;;11.20;7.07;;;18.10;99.90;;;;;;4990036;28;20630;-73
2023/06/25 02:37:32;;;;;;;9.63;6.85;;;18.20;99.90;;;;;;4993377;28;20226;-74
2023/06/25 02:40:22;;;;;;;8.55;6.82;;;18.30;99.90;;;;;;5004910;28;20316;-74
2023/06/25 02:43:12;;;;;;;9.27;7.07;;;18.10;99.90;;;;;;4994564;28;20218;-72
2023/06/25 02:46:01;;;;;;;12.65;7.15;;;18.10;99.90;;;;;;4996490;28;20768;-74
2023/06/25 02:48:51;;;;;;;9.35;6.68;;;18.10;99.90;;;;;;4995736;28;20309;-74
2023/06/25 02:51:40;;;;;;;9.85;6.97;;;18.00;99.90;;;;;;4986687;28;20242;-73
2023/06/25 02:54:29;;;;;;;8.95;7.03;;;18.00;99.90;;;;;;4993613;28;20793;-73
2023/06/25 02:57:17;;;;;;;10.30;6.93;;;18.00;99.90;;;;;;4999451;28;20222;-74
2023/06/25 03:00:08;;;;;;;10.32;6.93;;;18.00;99.90;;;;;;5004848;28;20215;-74
2023/06/25 03:02:59;;;;;;;8.82;7.30;;;18.20;99.90;;;;;;4997924;28;20233;-73
2023/06/25 03:05:51;;;;;;;8.13;6.60;;;18.20;99.90;;;;;;4987962;28;20215;-73
2023/06/25 03:08:40;;;;;;;9.75;7.03;;;18.20;99.90;;;;;;4998235;28;20243;-74
2023/06/25 03:11:31;;;;;;;11.75;7.10;;;18.10;99.90;;;;;;5007005;28;20233;-75
2023/06/25 03:14:20;;;;;;;11.18;7.22;;;18.10;99.90;;;;;;4998430;28;20237;-76
2023/06/25 03:17:12;;;;;;;9.50;7.45;;;18.00;99.90;;;;;;4995297;28;20233;-73
2023/06/25 03:20:03;;;;;;;9.27;7.57;;;18.10;99.90;;;;;;5002863;28;20704;-75
2023/06/25 03:22:54;;;;;;;10.25;7.75;;;18.10;99.90;;;;;;4993359;28;20525;-75
2023/06/25 03:25:43;;;;;;;9.00;7.20;;;18.00;99.90;;;;;;4996200;28;20653;-74
2023/06/25 03:28:44;;;;;;;11.57;8.52;;;18.10;99.90;;;;;;4986498;28;20594;-75
2023/06/25 03:31:48;;;;;;;9.63;7.70;;;18.20;99.90;;;;;;4991010;28;20237;-73
2023/06/25 03:34:44;;;;;;;10.38;7.65;;;18.20;99.90;;;;;;4998576;28;20916;-73
2023/06/25 03:37:34;;;;;;;12.02;8.23;;;18.20;99.90;;;;;;4988398;28;20245;-73
2023/06/25 03:40:26;;;;;;;13.20;8.18;;;18.30;99.90;;;;;;4997776;28;20234;-73
2023/06/25 03:43:15;;;;;;;11.18;8.60;;;18.20;99.90;;;;;;4997468;28;20230;-74
2023/06/25 03:46:04;;;;;;;13.40;8.75;;;18.40;99.90;;;;;;4994132;28;20227;-75
2023/06/25 03:48:54;;;;;;;11.50;8.30;;;18.50;99.90;;;;;;5018999;28;20734;-73
2023/06/25 03:51:45;;;;;;;14.13;8.73;;;18.30;99.90;;;;;;4991096;28;20350;-74
2023/06/25 03:54:34;;;;;;;10.75;8.75;;;18.30;99.90;;;;;;4999264;28;20226;-75
2023/06/25 03:57:25;;;;;;;10.40;8.55;;;18.30;99.90;;;;;;5005586;28;20351;-71
2023/06/25 04:00:14;;;;;;;11.90;8.98;;;18.30;99.90;;;;;;5001467;28;20741;-74
2023/06/25 04:03:03;;;;;;;11.98;8.93;;;18.40;99.90;;;;;;4994270;28;20330;-73
2023/06/25 04:05:52;;;;;;;13.35;9.00;;;18.50;99.90;;;;;;5001962;28;20225;-73
2023/06/25 04:08:42;;;;;;;12.85;8.98;;;18.60;99.90;;;;;;4994403;28;20226;-74
2023/06/25 04:11:31;;;;;;;15.60;9.38;;;18.60;99.90;;;;;;4988861;28;21062;-73
2023/06/25 04:14:22;;;;;;;18.13;8.68;;;18.50;99.90;;;;;;5001216;28;20218;-73
2023/06/25 04:17:10;;;;;;;13.38;9.90;;;18.70;99.90;;;;;;4990996;28;20525;-72
2023/06/25 04:20:00;;;;;;;12.05;8.90;;;18.90;99.90;;;;;;4996087;28;20231;-73
2023/06/25 04:22:50;;;;;;;11.93;9.27;;;19.00;99.90;;;;;;5009079;28;20732;-73
2023/06/25 04:25:39;;;;;;;12.27;8.95;;;18.80;99.90;;;;;;4999390;28;20226;-73
2023/06/25 04:28:28;;;;;;;11.05;9.80;;;18.60;99.90;;;;;;5000951;28;20230;-72
2023/06/25 04:31:21;;;;;;;12.82;8.93;;;18.80;99.90;;;;;;4998109;28;20963;-72
2023/06/25 04:34:12;;;;;;;13.40;9.90;;;18.80;99.90;;;;;;4989214;28;20377;-73
2023/06/25 04:37:05;;;;;;;11.18;9.40;;;18.60;99.90;;;;;;4997913;28;20634;-72
2023/06/25 04:39:54;;;;;;;11.50;9.02;;;18.70;99.90;;;;;;5009889;28;20226;-72
2023/06/25 04:42:43;;;;;;;12.68;9.20;;;18.80;99.90;;;;;;5005798;28;20325;-72
2023/06/25 04:45:32;;;;;;;11.05;9.05;;;18.70;99.90;;;;;;4993974;28;20219;-74
2023/06/25 04:48:22;;;;;;;13.77;9.55;;;18.80;99.90;;;;;;5004082;28;20217;-73
2023/06/25 04:51:11;;;;;;;11.93;9.32;;;18.90;99.90;;;;;;4995234;28;20242;-74
2023/06/25 04:54:00;;;;;;;11.43;9.32;;;19.00;99.90;;;;;;5011042;28;20232;-73
2023/06/25 04:56:50;;;;;;;12.63;9.43;;;19.00;99.90;;;;;;4995245;28;20219;-73
2023/06/25 04:59:39;;;;;;;10.57;9.27;;;19.00;99.90;;;;;;5006344;28;20903;-73
2023/06/25 05:02:28;;;;;;;15.23;10.68;;;19.00;99.90;;;;;;4995808;28;20843;-74
2023/06/25 05:05:19;;;;;;;12.68;9.48;;;18.60;99.90;;;;;;4998195;28;20221;-74
2023/06/25 05:08:08;;;;;;;12.10;9.57;;;18.90;99.90;;;;;;4998421;28;20210;-74
2023/06/25 05:10:57;;;;;;;14.23;10.00;;;19.00;99.90;;;;;;4994890;28;20222;-74
2023/06/25 05:13:46;;;;;;;16.00;11.20;;;19.00;99.90;;;;;;4983694;28;20721;-73
2023/06/25 05:16:35;;;;;;;12.75;9.50;;;19.10;99.90;;;;;;4993859;28;20232;-74
2023/06/25 05:19:24;;;;;;;13.57;9.98;;;19.00;99.90;;;;;;4992922;28;20229;-72
2023/06/25 05:22:14;;;;;;;14.50;9.85;;;19.00;99.90;;;;;;4994634;28;20239;-72
2023/06/25 05:25:03;;;;;;;15.15;9.82;;;19.00;99.90;;;;;;5006091;28;20751;-73
2023/06/25 05:27:52;;;;;;;11.45;9.70;;;19.30;99.90;;;;;;5005255;28;20233;-73
2023/06/25 05:30:41;;;;;;;12.57;10.00;;;19.30;99.90;;;;;;4985202;28;20245;-73
2023/06/25 05:33:30;;;;;;;11.77;9.32;;;19.70;99.90;;;;;;4982050;28;20715;-72
2023/06/25 05:36:19;;;;;;;12.25;10.35;;;20.00;99.90;;;;;;4991609;28;20253;-73
2023/06/25 05:39:09;;;;;;;13.98;9.60;;;19.90;99.90;;;;;;5008904;28;20236;-72
2023/06/25 05:41:59;;;;;;;12.10;9.45;;;20.10;99.90;;;;;;4988486;28;20226;-72
2023/06/25 05:44:49;;;;;;;11.88;9.65;;;20.20;99.90;;;;;;4997174;28;20637;-74
2023/06/25 05:47:38;;;;;;;15.02;10.32;;;20.30;99.90;;;;;;4994015;28;20223;-73
2023/06/25 05:50:28;;;;;;;13.13;9.30;;;20.70;99.90;;;;;;4985057;28;20218;-74
2023/06/25 05:53:16;;;;;;;14.25;9.07;;;20.80;99.90;;;;;;5003325;28;20226;-72
2023/06/25 05:56:07;;;;;;;12.35;9.18;;;20.80;99.90;;;;;;5004123;28;20221;-71
2023/06/25 05:58:55;;;;;;;13.13;8.80;;;20.90;99.90;;;;;;4993899;28;20251;-70
2023/06/25 06:01:45;;;;;;;14.48;9.77;;;21.10;99.90;;;;;;4996782;28;20237;-74
2023/06/25 06:04:33;;;;;;;13.35;9.38;;;21.10;99.90;;;;;;5003978;28;20217;-72
2023/06/25 06:07:22;;;;;;;10.15;8.30;;;21.10;99.90;;;;;;4997630;28;20301;-73
2023/06/25 06:10:14;;;;;;;9.45;8.45;;;21.20;99.90;;;;;;5000584;28;20268;-74
2023/06/25 06:13:05;;;;;;;11.60;8.20;;;21.40;99.90;;;;;;5002786;28;20229;-74
2023/06/25 06:15:55;;;;;;;13.73;9.00;;;21.50;99.90;;;;;;5003848;28;20246;-72
2023/06/25 06:18:44;;;;;;;12.65;9.00;;;21.70;99.90;;;;;;5006241;28;20722;-72
2023/06/25 06:21:32;;;;;;;12.45;9.00;;;22.50;99.90;;;;;;4989691;28;20553;-75
2023/06/25 06:24:22;;;;;;;12.02;8.75;;;22.50;99.90;;;;;;4998279;28;20234;-73
2023/06/25 06:27:11;;;;;;;10.55;8.88;;;22.30;99.90;;;;;;4999876;28;20842;-70
2023/06/25 06:30:06;;;;;;;11.55;8.43;;;22.20;99.90;;;;;;4998967;28;20278;-71
2023/06/25 06:33:13;;;;;;;11.50;8.60;;;22.00;99.90;;;;;;4994274;28;20218;-71
2023/06/25 06:36:02;;;;;;;12.70;8.50;;;22.10;99.90;;;;;;4999058;28;20246;-70
2023/06/25 06:38:51;;;;;;;9.45;7.78;;;22.30;99.90;;;;;;4986830;28;20218;-70
2023/06/25 06:41:39;;;;;;;10.15;7.80;;;22.90;99.90;;;;;;4991507;28;20708;-71
2023/06/25 06:44:28;;;;;;;9.95;7.68;;;23.50;99.90;;;;;;4995686;28;20231;-72
2023/06/25 06:47:18;;;;;;;10.48;7.93;;;24.10;99.90;;;;;;4999816;28;20230;-75
2023/06/25 06:50:08;;;;;;;8.77;7.20;;;23.90;99.90;;;;;;4994019;28;20885;-74
2023/06/25 06:52:57;;;;;;;9.25;7.45;;;23.60;99.90;;;;;;4995452;28;20246;-74
2023/06/25 06:55:46;;;;;;;10.32;7.53;;;23.70;99.90;;;;;;5006512;28;20228;-74
2023/06/25 06:58:34;;;;;;;9.95;7.80;;;23.80;99.90;;;;;;4997707;28;20226;-75
2023/06/25 07:01:24;;;;;;;9.73;7.15;;;23.70;99.90;;;;;;4992082;28;20983;-74
2023/06/25 07:04:15;;;;;;;9.48;7.22;;;23.70;99.90;;;;;;4989383;28;20831;-75
2023/06/25 07:07:06;;;;;;;8.60;6.30;;;23.70;99.90;;;;;;4993236;28;20222;-74
2023/06/25 07:09:55;;;;;;;9.95;7.05;;;23.70;99.90;;;;;;4994213;28;20265;-77
2023/06/25 07:12:44;;;;;;;7.65;6.80;;;23.90;99.90;;;;;;4987396;28;20786;-75
2023/06/25 07:15:33;;;;;;;8.40;6.65;;;25.50;99.90;;;;;;4992542;28;20230;-73
2023/06/25 07:18:22;;;;;;;8.70;7.63;;;25.60;99.90;;;;;;4994847;28;20233;-75
2023/06/25 07:21:13;;;;;;;8.90;7.35;;;25.30;99.90;;;;;;4997340;28;20391;-77
2023/06/25 07:24:02;;;;;;;9.82;7.35;;;25.20;99.90;;;;;;5002237;28;20246;-76
2023/06/25 07:26:53;;;;;;;8.35;7.32;;;25.20;99.90;;;;;;4997679;28;20218;-77
2023/06/25 07:29:43;;;;;;;9.52;6.88;;;25.00;99.90;;;;;;5001966;28;20246;-78
2023/06/25 07:32:32;;;;;;;8.30;6.85;;;25.20;99.90;;;;;;4989563;28;20288;-78
2023/06/25 07:35:21;;;;;;;9.48;7.00;;;25.60;99.90;;;;;;4997602;28;20238;-77
2023/06/25 07:38:13;;;;;;;8.68;7.10;;;26.10;99.90;;;;;;4997164;28;20246;-79
2023/06/25 07:41:02;;;;;;;7.32;6.38;;;26.40;99.90;;;;;;5002220;28;20225;-78
2023/06/25 07:43:51;;;;;;;8.00;6.55;;;26.70;99.90;;;;;;5006070;28;20324;-78
2023/06/25 07:46:40;;;;;;;12.32;7.85;;;27.20;99.90;;;;;;4997641;28;20241;-79
2023/06/25 07:49:29;;;;;;;8.82;7.45;;;27.60;99.90;;;;;;4998410;28;20230;-78
2023/06/25 07:52:18;;;;;;;10.93;7.57;;;27.60;99.90;;;;;;4989335;28;20242;-79
2023/06/25 07:55:09;;;;;;;11.98;7.70;;;27.60;99.90;;;;;;4996263;28;20233;-80
2023/06/25 07:57:58;;;;;;;8.63;7.72;;;27.90;99.90;;;;;;5010640;28;20226;-79
2023/06/25 08:00:47;;;;;;;8.82;7.57;;;28.20;99.90;;;;;;4989878;28;20238;-79
2023/06/25 08:03:36;;;;;;;11.07;7.63;;;28.10;99.90;;;;;;4997330;28;20219;-79
2023/06/25 08:06:26;;;;;;;9.68;7.43;;;28.60;99.90;;;;;;4995026;28;20321;-79
2023/06/25 08:09:16;;;;;;;11.20;7.63;;;28.90;99.90;;;;;;4991105;28;20233;-79
2023/06/25 08:12:07;;;;;;;7.80;6.95;;;28.90;99.90;;;;;;5000621;28;20214;-79
2023/06/25 08:14:55;;;;;;;8.52;6.75;;;28.80;97.30;;;;;;5014241;28;20232;-78
2023/06/25 08:17:44;;;;;;;7.05;6.35;;;29.10;97.40;;;;;;4992616;28;20237;-78
2023/06/25 08:20:34;;;;;;;7.82;6.65;;;28.90;96.40;;;;;;4990841;28;20224;-80
2023/06/25 08:23:24;;;;;;;7.57;6.30;;;29.50;96.90;;;;;;5001554;28;20217;-79
2023/06/25 08:26:15;;;;;;;6.30;5.68;;;29.90;95.10;;;;;;4999723;28;20244;-79
2023/06/25 08:29:06;;;;;;;7.50;6.05;;;29.80;92.80;;;;;;4998167;28;20288;-79
2023/06/25 08:31:54;;;;;;;6.90;6.15;;;29.70;94.30;;;;;;5004316;28;20253;-79
2023/06/25 08:34:43;;;;;;;7.75;6.38;;;30.20;94.70;;;;;;4996722;28;20233;-79
2023/06/25 08:37:32;;;;;;;8.27;6.57;;;29.80;93.30;;;;;;4998684;28;20242;-81
2023/06/25 08:40:26;;;;;;;7.63;6.82;;;30.10;94.00;;;;;;5001124;28;20221;-80
2023/06/25 08:43:15;;;;;;;8.07;6.82;;;30.20;93.80;;;;;;4991830;28;20343;-79
2023/06/25 08:46:08;;;;;;;7.47;6.40;;;29.90;94.10;;;;;;4993643;28;20229;-79
2023/06/25 08:48:59;;;;;;;8.75;6.30;;;29.20;94.20;;;;;;4993673;28;20222;-80
2023/06/25 08:51:49;;;;;;;10.35;6.22;;;29.50;95.50;;;;;;4985210;28;20226;-82
2023/06/25 08:54:39;;;;;;;6.88;5.57;;;30.10;93.10;;;;;;4986105;28;20226;-81
2023/06/25 08:57:29;;;;;;;7.50;5.75;;;30.50;92.00;;;;;;4993036;28;20310;-81
2023/06/25 09:00:19;;;;;;;7.57;5.50;;;30.70;91.30;;;;;;4990554;28;20233;-81
2023/06/25 09:03:10;;;;;;;7.57;5.68;;;31.40;91.40;;;;;;5002900;28;20234;-76
2023/06/25 09:05:59;;;;;;;6.28;5.65;;;31.60;90.90;;;;;;5003265;28;20244;-77
2023/06/25 09:08:48;;;;;;;5.45;4.95;;;31.60;87.60;;;;;;4993095;28;20265;-79
2023/06/25 09:11:42;;;;;;;5.75;5.20;;;31.50;88.90;;;;;;4997792;28;20388;-80
2023/06/25 09:14:34;;;;;;;6.97;5.95;;;31.50;87.50;;;;;;5000371;28;20299;-77
2023/06/25 09:17:23;;;;;;;8.80;7.90;;;31.50;87.40;;;;;;5005438;28;20702;-76
2023/06/25 09:20:14;;;;;;;5.93;5.32;;;31.70;90.20;;;;;;4995481;28;20268;-77
2023/06/25 09:23:05;;;;;;;6.20;5.55;;;30.30;86.60;;;;;;4998810;28;20248;-78
2023/06/25 09:25:54;;;;;;;6.40;5.75;;;31.20;86.30;;;;;;4991998;28;20297;-77
2023/06/25 09:28:51;;;;;;;6.25;5.63;;;31.60;86.70;;;;;;4998666;28;20234;-79
2023/06/25 09:31:42;;;;;;;6.60;5.47;;;31.90;85.30;;;;;;5000211;28;20245;-76
2023/06/25 09:34:31;;;;;;;5.97;4.90;;;31.40;86.50;;;;;;4996140;28;20221;-76
2023/06/25 09:37:21;;;;;;;5.80;4.60;;;32.60;83.80;;;;;;4994056;28;20681;-76
2023/06/25 09:40:11;;;;;;;5.55;4.90;;;31.90;78.40;;;;;;4999382;28;20359;-76
2023/06/25 09:43:05;;;;;;;5.00;4.28;;;30.70;82.10;;;;;;5000097;28;20249;-75
2023/06/25 09:45:54;;;;;;;5.10;4.57;;;31.40;80.70;;;;;;4999441;28;20217;-76
2023/06/25 09:48:45;;;;;;;6.65;4.90;;;32.80;77.20;;;;;;5002471;28;20226;-77
2023/06/25 09:51:41;;;;;;;5.85;5.20;;;33.30;77.90;;;;;;4996646;28;20322;-76
2023/06/25 09:54:32;;;;;;;5.97;5.18;;;34.30;77.80;;;;;;4988857;28;20683;-75
2023/06/25 09:57:22;;;;;;;7.32;5.55;;;36.00;79.40;;;;;;4995895;28;20713;-78
2023/06/25 10:00:13;;;;;;;5.38;4.88;;;35.30;74.50;;;;;;4996860;28;20301;-76
2023/06/25 10:03:04;;;;;;;5.60;5.13;;;33.00;75.90;;;;;;4997621;28;20712;-77
2023/06/25 10:05:55;;;;;;;5.97;5.38;;;31.50;78.80;;;;;;4999217;28;20320;-75
2023/06/25 10:08:44;;;;;;;6.20;5.60;;;30.80;82.00;;;;;;4996001;28;20275;-75
2023/06/25 10:11:35;;;;;;;6.90;6.07;;;33.40;79.00;;;;;;4988704;28;21102;-77
2023/06/25 10:14:24;;;;;;;7.72;5.25;;;35.20;77.30;;;;;;4990430;28;20257;-78
2023/06/25 10:17:14;;;;;;;5.68;5.18;;;36.80;72.40;;;;;;4995798;28;20235;-76
2023/06/25 10:20:05;;;;;;;6.63;5.32;;;37.90;69.50;;;;;;5008653;28;20233;-76
2023/06/25 10:23:04;;;;;;;6.97;5.32;;;38.60;63.00;;;;;;5000455;28;20211;-76
2023/06/25 10:25:54;;;;;;;6.32;5.05;;;40.10;65.40;;;;;;5000189;28;20218;-74
2023/06/25 10:28:51;;;;;;;6.60;5.20;;;41.40;61.00;;;;;;5000024;28;20249;-76
2023/06/25 10:31:49;;;;;;;5.20;4.72;;;37.80;60.60;;;;;;4995028;28;20736;-76
2023/06/25 10:34:41;;;;;;;6.95;5.50;;;35.10;66.30;;;;;;4983012;28;20222;-77
2023/06/25 10:37:32;;;;;;;6.15;5.22;;;33.20;68.00;;;;;;4989493;28;20309;-75
2023/06/25 10:40:21;;;;;;;6.10;5.50;;;32.50;71.20;;;;;;4993554;28;20233;-73
2023/06/25 10:43:10;;;;;;;5.93;4.80;;;37.60;66.40;;;;;;4989372;28;20373;-75
2023/06/25 10:46:01;;;;;;;6.38;4.78;;;40.00;59.20;;;;;;4984219;28;20321;-73
2023/06/25 10:48:49;;;;;;;5.03;4.53;;;41.70;58.70;;;;;;5005098;28;20836;-75
2023/06/25 10:51:39;;;;;;;5.03;4.55;;;41.50;54.00;;;;;;5008545;28;20223;-75
2023/06/25 10:54:29;;;;;;;6.03;4.40;;;42.90;51.70;;;;;;4991642;28;20222;-71
2023/06/25 10:57:18;;;;;;;4.65;4.25;;;40.00;52.10;;;;;;4996852;28;20229;-76
2023/06/25 11:00:09;;;;;;;4.68;4.15;;;40.20;51.50;;;;;;4992097;28;20230;-74
2023/06/25 11:03:00;;;;;;;4.57;4.18;;;35.10;56.60;;;;;;4995142;28;20636;-76
2023/06/25 11:05:49;;;;;;;4.90;4.40;;;33.70;58.20;;;;;;4995489;28;20926;-75
2023/06/25 11:08:41;;;;;;;4.88;4.20;;;33.10;62.40;;;;;;4985892;28;20218;-75
2023/06/25 11:11:32;;;;;;;4.57;4.18;;;37.80;55.50;;;;;;4990382;28;20238;-77
2023/06/25 11:14:21;;;;;;;5.55;3.90;;;40.60;51.40;;;;;;5004505;28;20311;-76
2023/06/25 11:17:10;;;;;;;7.35;4.25;;;42.50;49.90;;;;;;4995887;28;20214;-75
2023/06/25 11:20:00;;;;;;;4.28;3.80;;;37.70;51.00;;;;;;4994715;28;20236;-75
2023/06/25 11:22:50;;;;;;;4.40;4.00;;;34.40;54.00;;;;;;4996063;28;20441;-74
2023/06/25 11:25:39;;;;;;;5.00;4.53;;;32.90;57.90;;;;;;4993883;28;20230;-74
2023/06/25 11:28:29;;;;;;;6.68;5.00;;;31.80;61.60;;;;;;4983563;28;20360;-76
2023/06/25 11:31:18;;;;;;;5.15;4.65;;;30.90;63.00;;;;;;4993776;28;20242;-78
2023/06/25 11:34:08;;;;;;;5.28;4.75;;;30.40;64.80;;;;;;4993580;28;20225;-76
2023/06/25 11:37:08;;;;;;;5.68;4.95;;;29.90;69.80;;;;;;5002714;28;20221;-78
2023/06/25 11:39:57;;;;;;;9.25;5.10;;;29.60;68.70;;;;;;5001961;28;20357;-78
2023/06/25 11:42:47;;;;;;;8.00;5.10;;;30.90;70.60;;;;;;4991245;28;20233;-78
2023/06/25 11:45:42;;;;;;;5.20;4.70;;;38.30;62.60;;;;;;4998340;28;20233;-78
2023/06/25 11:48:33;;;;;;;5.00;4.50;;;37.50;57.70;;;;;;4995841;28;20229;-78
2023/06/25 11:51:26;;;;;;;6.55;4.82;;;36.00;58.50;;;;;;4995193;28;20220;-78
2023/06/25 11:54:19;;;;;;;5.65;5.10;;;34.00;61.20;;;;;;4998700;28;20213;-78
2023/06/25 11:57:08;;;;;;;5.55;4.93;;;33.40;64.00;;;;;;5001355;28;20249;-78
2023/06/25 11:59:57;;;;;;;5.00;4.60;;;32.50;66.70;;;;;;4993995;28;20218;-80
2023/06/25 12:02:46;;;;;;;5.88;4.88;;;40.50;60.40;;;;;;4997989;28;20240;-79
2023/06/25 12:05:38;;;;;;;5.10;4.60;;;43.60;53.70;;;;;;4992407;28;20218;-80
2023/06/25 12:08:28;;;;;;;5.35;4.63;;;45.50;50.30;;;;;;4992752;28;20237;-80
2023/06/25 12:11:18;;;;;;;4.65;4.18;;;46.00;49.20;;;;;;4993407;28;20316;-79
2023/06/25 12:14:07;;;;;;;4.82;4.15;;;46.40;45.60;;;;;;5001577;28;21052;-78
2023/06/25 12:16:56;;;;;;;4.80;4.30;;;43.00;45.50;;;;;;4992419;28;20222;-78
2023/06/25 12:19:45;;;;;;;4.85;4.35;;;39.10;49.50;;;;;;4990327;28;20218;-78
2023/06/25 12:22:34;;;;;;;4.97;4.47;;;36.70;52.20;;;;;;4979930;28;20230;-79
2023/06/25 12:25:25;;;;;;;5.68;5.18;;;35.60;54.00;;;;;;4987486;28;20284;-78
2023/06/25 12:28:16;;;;;;;4.53;4.13;;;39.90;52.90;;;;;;5000043;28;20316;-78
2023/06/25 12:31:05;;;;;;;5.25;4.60;;;46.20;47.40;;;;;;4993276;28;20272;-80
2023/06/25 12:33:54;;;;;;;5.55;4.57;;;40.90;48.10;;;;;;4991962;28;20835;-79
2023/06/25 12:36:43;;;;;;;5.47;4.25;;;36.40;53.20;;;;;;4989380;28;20233;-79
2023/06/25 12:39:32;;;;;;;6.03;4.97;;;34.40;55.70;;;;;;5006136;28;20237;-78
2023/06/25 12:42:21;;;;;;;6.15;4.82;;;32.60;59.40;;;;;;5003539;28;20225;-78
2023/06/25 12:45:11;;;;;;;5.00;4.60;;;31.40;62.20;;;;;;4997510;28;20221;-79
2023/06/25 12:48:00;;;;;;;6.07;5.45;;;30.80;66.10;;;;;;5005870;28;20236;-78
2023/06/25 12:50:50;;;;;;;7.30;5.68;;;30.50;66.60;;;;;;5012105;28;20221;-79
2023/06/25 12:53:39;;;;;;;8.38;5.88;;;29.90;67.60;;;;;;5023545;28;20236;-77
2023/06/25 12:56:29;;;;;;;6.35;5.35;;;29.70;69.00;;;;;;5003366;28;20232;-76
2023/06/25 12:59:18;;;;;;;5.90;5.30;;;29.50;70.30;;;;;;5002092;28;20227;-77
2023/06/25 13:02:08;;;;;;;6.45;5.55;;;29.10;70.60;;;;;;4995677;28;20839;-78
2023/06/25 13:04:57;;;;;;;8.35;5.65;;;29.10;71.50;;;;;;4993258;28;20372;-78
2023/06/25 13:07:46;;;;;;;6.15;5.53;;;29.20;73.00;;;;;;4998586;28;20225;-77
2023/06/25 13:10:35;;;;;;;7.50;6.03;;;29.00;74.30;;;;;;5002871;28;20235;-77
2023/06/25 13:13:24;;;;;;;6.53;5.50;;;29.00;74.40;;;;;;4995152;28;20229;-77
2023/06/25 13:16:13;;;;;;;7.40;6.28;;;28.90;74.30;;;;;;4997121;28;20296;-78
2023/06/25 13:19:04;;;;;;;7.70;6.07;;;28.90;75.60;;;;;;5004165;28;20238;-76
2023/06/25 13:21:53;;;;;;;6.40;5.50;;;29.00;76.60;;;;;;4995329;28;20226;-78
2023/06/25 13:24:42;;;;;;;8.68;6.35;;;29.00;74.10;;;;;;4991510;28;20313;-77
2023/06/25 13:27:32;;;;;;;5.85;5.32;;;28.90;74.50;;;;;;4978821;28;20222;-74
2023/06/25 13:30:22;;;;;;;7.97;5.97;;;28.70;75.70;;;;;;4987715;28;20226;-73
2023/06/25 13:33:11;;;;;;;8.32;5.13;;;28.60;74.80;;;;;;4990866;28;20262;-73
2023/06/25 13:36:02;;;;;;;6.32;5.10;;;28.40;74.10;;;;;;4993451;28;20234;-73
2023/06/25 13:38:51;;;;;;;5.70;4.80;;;28.30;72.70;;;;;;4990848;28;20626;-74
2023/06/25 13:41:40;;;;;;;6.32;5.53;;;28.30;73.80;;;;;;4995598;28;20218;-73
2023/06/25 13:44:28;;;;;;;11.00;4.90;;;28.10;72.30;;;;;;4993830;28;20879;-74
2023/06/25 13:47:17;;;;;;;7.30;4.80;;;28.20;71.90;;;;;;4993231;28;20416;-73
2023/06/25 13:50:08;;;;;;;6.78;4.85;;;28.10;74.40;;;;;;4987515;28;20309;-73
2023/06/25 13:52:58;;;;;;;5.70;5.07;;;28.00;73.70;;;;;;4996004;28;20284;-71
2023/06/25 13:55:47;;;;;;;6.07;5.47;;;27.80;74.20;;;;;;4986900;28;20332;-73
2023/06/25 13:58:37;;;;;;;5.90;5.10;;;27.80;76.10;;;;;;4987750;28;20225;-73
2023/06/25 14:01:26;;;;;;;8.00;5.40;;;27.60;75.20;;;;;;5000837;28;20582;-74
2023/06/25 14:04:15;;;;;;;6.35;5.43;;;27.50;74.60;;;;;;4988938;28;20233;-71
2023/06/25 14:07:04;;;;;;;6.82;5.28;;;27.50;76.30;;;;;;5000098;28;20313;-75
2023/06/25 14:09:55;;;;;;;8.85;6.30;;;27.30;75.00;;;;;;4999864;28;20246;-70
2023/06/25 14:12:44;;;;;;;8.52;5.53;;;27.40;79.00;;;;;;4984654;28;20240;-72
2023/06/25 14:15:32;;;;;;;7.00;5.53;;;27.10;76.60;;;;;;4995554;28;20908;-77
2023/06/25 14:18:21;;;;;;;8.65;5.85;;;27.10;77.60;;;;;;4994102;28;20708;-75
2023/06/25 14:21:10;;;;;;;9.55;7.07;;;27.10;78.50;;;;;;4995404;28;20256;-73
2023/06/25 14:23:59;;;;;;;6.43;5.70;;;27.30;79.60;;;;;;5003072;28;20563;-72
2023/06/25 14:26:49;;;;;;;7.20;6.00;;;27.30;77.40;;;;;;4988242;28;20567;-71
2023/06/25 14:29:38;;;;;;;7.35;5.75;;;27.10;76.50;;;;;;4997121;28;20225;-74
2023/06/25 14:32:27;;;;;;;9.05;5.38;;;27.30;78.50;;;;;;4985912;28;20229;-72
2023/06/25 14:35:17;;;;;;;7.35;5.63;;;27.30;78.20;;;;;;4998210;28;20229;-72
2023/06/25 14:38:06;;;;;;;5.93;5.30;;;27.40;76.70;;;;;;4996228;28;20234;-73
2023/06/25 14:40:55;;;;;;;7.22;5.90;;;27.50;79.40;;;;;;4997866;28;20745;-74